Golden Princess — ZCDA9 — position and weather

sailwx.info

Track history (hours):
 
Tides and Currents Weather Stations Pressure Air Temp Water Temp Dewpoint Dewpoint Depression Visibility Wind Speed Wind Dir Waves Ship Positions

Golden Princess

Operator: Princess Cruises

Last reported at 2014-Jul-30 23:32 UTC. Time now 2014-Jul-31 11:25 UTC.
Position N 58°15' W 135°35'.

Length 289.6 m; beam 36 m; draft 8.5 m.

Type: Ship. MMSI: 310344000.

Date/timePositionNaut miles runAvg speedWind from/ knotsBaromVisibWave heightAir tempDewpointWater temp
2014-Jul-30 23:32N 58°15' W 135°35'1515.3
2014-Jul-30 22:33N 58°24' W 135°57'1111.2
2014-Jul-30 21:34N 58°35' W 136°04'1818.1
2014-Jul-30 20:33N 58°49' W 136°27'1 0.1
2014-Jul-30 15:33N 58°48' W 136°26'1817.6
2014-Jul-30 14:33N 58°35' W 136°04'1211.8
2014-Jul-30 13:33N 58°24' W 135°57'9 9.0
2014-Jul-30 12:33N 58°18' W 135°44'1312.4
2014-Jul-30 11:32N 58°13' W 135°21'  
2014-Jul-28 04:00N 53°54' W 133°24'34220.8 150 / 161023.610.8 0.515.013.216.0
2014-Jul-27 11:33N 49°38' W 127°19'2121.0
2014-Jul-27 10:33N 49°24' W 126°54'2121.2
2014-Jul-27 09:33N 49°11' W 126°29'2120.9
2014-Jul-27 08:33N 48°58' W 126°04'2121.0
2014-Jul-27 07:33N 48°46' W 125°38'2221.9
2014-Jul-27 06:34N 48°37' W 125°08'4622.0
2014-Jul-27 04:29N 48°20' W 124°04'2221.4
2014-Jul-27 03:27N 48°15' W 123°32'1213.7
2014-Jul-27 02:32N 48°11' W 123°14'1818.8
2014-Jul-27 01:33N 48°10' W 122°46'1818.3
2014-Jul-27 00:33N 47°55' W 122°30'1716.4
2014-Jul-26 23:33N 47°39' W 122°27'3 2.9
2014-Jul-26 22:32N 47°38' W 122°23'0 0.0
2014-Jul-26 21:28N 47°38' W 122°23'0 0.0
2014-Jul-26 20:31N 47°38' W 122°23'0 0.0
2014-Jul-26 19:31N 47°38' W 122°23'0 0.0
2014-Jul-26 18:33N 47°38' W 122°23'0 0.0
2014-Jul-26 17:30N 47°38' W 122°23'0 0.0
2014-Jul-26 16:29N 47°38' W 122°23'0 0.0
2014-Jul-26 15:32N 47°38' W 122°23'0 0.0
2014-Jul-26 14:32N 47°38' W 122°23'0 0.0
2014-Jul-26 13:31N 47°38' W 122°23'0 0.2
2014-Jul-26 12:33N 47°38' W 122°23'9 8.8
2014-Jul-26 11:34N 47°46' W 122°27'1414.0
2014-Jul-26 10:34N 47°59' W 122°36'1514.5
2014-Jul-26 09:33N 48°10' W 122°48'1918.5
2014-Jul-26 08:33N 48°11' W 123°16'1010.2
2014-Jul-26 07:34N 48°18' W 123°27'7 6.8
2014-Jul-26 06:33N 48°25' W 123°23'0 0.0
2014-Jul-26 05:32N 48°25' W 123°23'0 0.0
2014-Jul-26 04:32N 48°25' W 123°23'0 0.0
2014-Jul-26 03:31N 48°25' W 123°23'0 0.0
2014-Jul-26 02:31N 48°25' W 123°23'0 0.2
2014-Jul-26 01:33N 48°25' W 123°24'9 9.1
2014-Jul-26 00:34N 48°16' W 123°26'2121.0
2014-Jul-25 23:33N 48°14' W 123°58'2222.1
2014-Jul-25 22:34N 48°24' W 124°28'2221.5
2014-Jul-25 21:33N 48°28' W 124°59'2020.6
2014-Jul-25 20:33N 48°39' W 125°26'2120.9
2014-Jul-25 19:33N 48°52' W 125°50'2120.5
2014-Jul-25 18:33N 49°05' W 126°15'2120.3
2014-Jul-25 17:32N 49°18' W 126°40'32920.4
2014-Jul-25 01:23N 54°05' W 131°01'1720.5
2014-Jul-25 00:33N 54°21' W 131°07'26310.8
2014-Jul-24 00:16N 58°07' W 135°08'1520.5
2014-Jul-23 23:33N 58°14' W 135°33'1616.4
2014-Jul-23 22:34N 58°24' W 135°58'1313.1
2014-Jul-23 21:33N 58°36' W 136°05'1818.0
2014-Jul-23 20:33N 58°49' W 136°29'8 1.8
2014-Jul-23 16:07N 58°53' W 136°43'1018.1
2014-Jul-23 15:33N 58°48' W 136°26'1817.9
2014-Jul-23 14:33N 58°34' W 136°04'1211.6
2014-Jul-23 13:33N 58°23' W 135°57'10 9.8
2014-Jul-23 12:33N 58°17' W 135°42'1312.2
2014-Jul-23 11:30N 58°13' W 135°19'  
Track history (hours):
 
Tides and Currents Weather Stations Pressure Air Temp Water Temp Dewpoint Dewpoint Depression Visibility Wind Speed Wind Dir Waves Ship Positions

Golden Princess

Operator: Princess Cruises

Last reported at 2014-Jul-30 23:32 UTC. Time now 2014-Jul-31 11:25 UTC.
Position N 58°15' W 135°35'.

Length 289.6 m; beam 36 m; draft 8.5 m.

Type: Ship. MMSI: 310344000.

Date/timePositionNaut miles runAvg speedWind from/ knotsBaromVisibWave heightAir tempDewpointWater temp
2014-Jul-30 23:32N 58°15' W 135°35'1515.3
2014-Jul-30 22:33N 58°24' W 135°57'1111.2
2014-Jul-30 21:34N 58°35' W 136°04'1818.1
2014-Jul-30 20:33N 58°49' W 136°27'1 0.1
2014-Jul-30 15:33N 58°48' W 136°26'1817.6
2014-Jul-30 14:33N 58°35' W 136°04'1211.8
2014-Jul-30 13:33N 58°24' W 135°57'9 9.0
2014-Jul-30 12:33N 58°18' W 135°44'1312.4
2014-Jul-30 11:32N 58°13' W 135°21'  
2014-Jul-28 04:00N 53°54' W 133°24'34220.8 150 / 161023.610.8 0.515.013.216.0
2014-Jul-27 11:33N 49°38' W 127°19'2121.0
2014-Jul-27 10:33N 49°24' W 126°54'2121.2
2014-Jul-27 09:33N 49°11' W 126°29'2120.9
2014-Jul-27 08:33N 48°58' W 126°04'2121.0
2014-Jul-27 07:33N 48°46' W 125°38'2221.9
2014-Jul-27 06:34N 48°37' W 125°08'4622.0
2014-Jul-27 04:29N 48°20' W 124°04'2221.4
2014-Jul-27 03:27N 48°15' W 123°32'1213.7
2014-Jul-27 02:32N 48°11' W 123°14'1818.8
2014-Jul-27 01:33N 48°10' W 122°46'1818.3
2014-Jul-27 00:33N 47°55' W 122°30'1716.4
2014-Jul-26 23:33N 47°39' W 122°27'3 2.9
2014-Jul-26 22:32N 47°38' W 122°23'0 0.0
2014-Jul-26 21:28N 47°38' W 122°23'0 0.0
2014-Jul-26 20:31N 47°38' W 122°23'0 0.0
2014-Jul-26 19:31N 47°38' W 122°23'0 0.0
2014-Jul-26 18:33N 47°38' W 122°23'0 0.0
2014-Jul-26 17:30N 47°38' W 122°23'0 0.0
2014-Jul-26 16:29N 47°38' W 122°23'0 0.0
2014-Jul-26 15:32N 47°38' W 122°23'0 0.0
2014-Jul-26 14:32N 47°38' W 122°23'0 0.0
2014-Jul-26 13:31N 47°38' W 122°23'0 0.2
2014-Jul-26 12:33N 47°38' W 122°23'9 8.8
2014-Jul-26 11:34N 47°46' W 122°27'1414.0
2014-Jul-26 10:34N 47°59' W 122°36'1514.5
2014-Jul-26 09:33N 48°10' W 122°48'1918.5
2014-Jul-26 08:33N 48°11' W 123°16'1010.2
2014-Jul-26 07:34N 48°18' W 123°27'7 6.8
2014-Jul-26 06:33N 48°25' W 123°23'0 0.0
2014-Jul-26 05:32N 48°25' W 123°23'0 0.0
2014-Jul-26 04:32N 48°25' W 123°23'0 0.0
2014-Jul-26 03:31N 48°25' W 123°23'0 0.0
2014-Jul-26 02:31N 48°25' W 123°23'0 0.2
2014-Jul-26 01:33N 48°25' W 123°24'9 9.1
2014-Jul-26 00:34N 48°16' W 123°26'2121.0
2014-Jul-25 23:33N 48°14' W 123°58'2222.1
2014-Jul-25 22:34N 48°24' W 124°28'2221.5
2014-Jul-25 21:33N 48°28' W 124°59'2020.6
2014-Jul-25 20:33N 48°39' W 125°26'2120.9
2014-Jul-25 19:33N 48°52' W 125°50'2120.5
2014-Jul-25 18:33N 49°05' W 126°15'2120.3
2014-Jul-25 17:32N 49°18' W 126°40'32920.4
2014-Jul-25 01:23N 54°05' W 131°01'1720.5
2014-Jul-25 00:33N 54°21' W 131°07'26310.8
2014-Jul-24 00:16N 58°07' W 135°08'1520.5
2014-Jul-23 23:33N 58°14' W 135°33'1616.4
2014-Jul-23 22:34N 58°24' W 135°58'1313.1
2014-Jul-23 21:33N 58°36' W 136°05'1818.0
2014-Jul-23 20:33N 58°49' W 136°29'8 1.8
2014-Jul-23 16:07N 58°53' W 136°43'1018.1
2014-Jul-23 15:33N 58°48' W 136°26'1817.9
2014-Jul-23 14:33N 58°34' W 136°04'1211.6
2014-Jul-23 13:33N 58°23' W 135°57'10 9.8
2014-Jul-23 12:33N 58°17' W 135°42'1312.2
2014-Jul-23 11:30N 58°13' W 135°19'  

Dump ship's entire track history